Thunder radar more information blitzortung!


Radar de pluja more information rain snow radar


Visita la nostra xarxa de llocs de meteo:

Template documentation
and downloads

And another site



No particular awareness of the weather is required.    There are no Weather-warnings

Pagina Historial Weather Underground text

Diari Resum Juny 3, 2017 Unitats:  Imperial    Mètric   Tant
« Previous Dia
SegĂźent Dia »
Diari Setmana Mensual Anual Personalitzada
  Maxima: Minima: Media:
Temperatura: TemperatureC °F 17.9 °F 22.8 °F
Punt de rosada: DewpointC °F 10.3 °F 14.3 °F
Humitat: Humidity % 43 % 59 %
Wind Speed: WindSpeedKMH mph 0.0 mph 5 mph
RĂ fegues de vent: WindSpeedGustKMH mph - -
Vent:- - SSW
Pression baro: PressurehPa in 1011.7 in -
Precipitacions: 0.0 in    
Historical Graphs
 
 
Dades de taula per Juny 3, 2017
Temps Temperatura Punt de rosada Pression baro Vent Wind Speed RĂ fegues de vent Humitat Rainfall Rate (Hourly)
TemperatureC °F DewpointC °F PressurehPa in Calm     Humidity % HourlyPrecipMM in
00:02 20.7 °F 13.4 °F 1015.8 in WSW 3.7 mph 3.7 mph 63 % 0.0 in
04:30 21.7 °F 16.2 °F 1014.8 in SSW 4.8 mph 6.4 mph 71 % 0.0 in
04:40 22.1 °F 16.4 °F 1014.8 in SW 3.2 mph 6.4 mph 70 % 0.0 in
04:50 23.1 °F 17.1 °F 1014.8 in WSW 1.6 mph 3.2 mph 69 % 0.0 in
05:00 24.0 °F 17.3 °F 1014.8 in WSW 3.2 mph 4.8 mph 66 % 0.0 in
05:10 24.2 °F 17.2 °F 1014.8 in SW 1.6 mph 6.4 mph 65 % 0.0 in
05:20 23.9 °F 17.2 °F 1014.8 in Calm   1.6 mph 66 % 0.0 in
05:30 23.1 °F 16.6 °F 1014.8 in South 3.2 mph 6.4 mph 67 % 0.0 in
05:40 22.8 °F 17.1 °F 1013.8 in SSW 1.6 mph 3.2 mph 70 % 0.0 in
05:50 23.0 °F 16.8 °F 1013.8 in SW 3.2 mph 4.8 mph 68 % 0.0 in
06:00 23.1 °F 16.9 °F 1014.8 in SW 4.8 mph 6.4 mph 68 % 0.0 in
06:10 23.4 °F 16.9 °F 1014.8 in WSW 1.6 mph 4.8 mph 67 % 0.0 in
06:20 23.4 °F 16.9 °F 1014.8 in SW 3.2 mph 9.7 mph 67 % 0.0 in
06:30 23.2 °F 16.9 °F 1015.8 in WSW 8.0 mph 8.0 mph 68 % 0.0 in
06:40 23.1 °F 17.1 °F 1014.8 in WSW 4.8 mph 6.4 mph 69 % 0.0 in
06:50 23.3 °F 17.1 °F 1014.8 in WSW 3.2 mph 6.4 mph 68 % 0.0 in
07:00 23.7 °F 16.5 °F 1014.8 in SW 8.0 mph 8.0 mph 64 % 0.0 in
12:01 23.7 °F 16.5 °F 1014.8 in SSW 9.3 mph 9.3 mph 64 % 0.0 in
12:06 23.6 °F 16.2 °F 1015.8 in SSW 13.0 mph 13.0 mph 63 % 0.0 in
12:11 23.5 °F 16.1 °F 1015.8 in WSW 9.3 mph 9.3 mph 63 % 0.0 in
12:16 23.4 °F 15.7 °F 1015.8 in SW 13.0 mph 13.0 mph 62 % 0.0 in
12:21 23.5 °F 15.8 °F 1014.8 in SSW 7.9 mph 7.9 mph 62 % 0.0 in
12:26 23.5 °F 15.6 °F 1014.8 in SW 11.1 mph 11.1 mph 61 % 0.0 in
12:31 23.5 °F 15.3 °F 1014.8 in SSE 5.6 mph 5.6 mph 60 % 0.0 in
12:36 23.4 °F 15.2 °F 1014.8 in WSW 5.6 mph 5.8 mph 60 % 0.0 in
12:41 23.1 °F 15.4 °F 1014.8 in NW 5.6 mph 5.6 mph 62 % 0.0 in
12:46 22.5 °F 14.8 °F 1014.8 in WSW 6.9 mph 6.9 mph 62 % 0.0 in
12:51 22.3 °F 15.2 °F 1014.8 in SSW 3.9 mph 3.9 mph 64 % 0.0 in
12:56 22.0 °F 15.1 °F 1014.8 in West 4.7 mph 4.7 mph 65 % 0.0 in
13:01 21.8 °F 14.9 °F 1014.8 in WSW 6.1 mph 6.1 mph 65 % 0.0 in
13:06 21.5 °F 14.7 °F 1014.8 in WSW 9.3 mph 9.3 mph 65 % 0.0 in
13:11 21.4 °F 15.5 °F 1014.8 in South 1.9 mph 1.9 mph 69 % 0.0 in
13:16 21.2 °F 15.3 °F 1014.8 in WSW 5.6 mph 5.6 mph 69 % 0.0 in
13:21 21.1 °F 15.2 °F 1014.8 in SW 5.6 mph 5.6 mph 69 % 0.0 in
13:26 21.2 °F 15.5 °F 1014.8 in WSW 5.6 mph 5.6 mph 70 % 0.0 in
13:31 21.4 °F 15.9 °F 1014.8 in SSW 3.9 mph 4.2 mph 71 % 0.0 in
13:36 21.4 °F 15.7 °F 1014.8 in SSW 5.6 mph 5.6 mph 70 % 0.0 in
13:41 21.5 °F 15.8 °F 1014.8 in WSW 5.6 mph 5.6 mph 70 % 0.0 in
13:46 21.7 °F 16.0 °F 1014.8 in WSW 3.7 mph 3.7 mph 70 % 0.0 in
13:51 22.0 °F 16.1 °F 1014.8 in WSW 3.7 mph 3.7 mph 69 % 0.0 in
13:56 22.0 °F 16.1 °F 1014.8 in WSW 5.6 mph 5.6 mph 69 % 0.0 in
14:01 22.0 °F 16.3 °F 1014.8 in WSW 9.0 mph 9.0 mph 70 % 0.0 in
14:06 21.8 °F 16.3 °F 1015.8 in West 9.0 mph 9.0 mph 71 % 0.0 in
14:11 21.8 °F 16.3 °F 1015.8 in SW 5.6 mph 5.6 mph 71 % 0.0 in
14:21 22.0 °F 16.5 °F 1015.8 in SW 3.7 mph 3.7 mph 71 % 0.0 in
14:26 22.2 °F 16.7 °F 1015.8 in SW 5.6 mph 5.6 mph 71 % 0.0 in
14:31 22.4 °F 16.9 °F 1015.8 in SW 4.7 mph 4.7 mph 71 % 0.0 in
14:36 22.4 °F 16.9 °F 1015.8 in SW 3.7 mph 3.9 mph 71 % 0.0 in
14:41 22.4 °F 17.1 °F 1015.8 in WSW 3.7 mph   72 % 0.0 in
14:46 22.4 °F 17.1 °F 1015.8 in SW 3.9 mph 3.9 mph 72 % 0.0 in
14:51 22.3 °F 17.0 °F 1015.8 in SW 7.9 mph 7.9 mph 72 % 0.0 in
14:56 22.4 °F 17.3 °F 1015.8 in SSW 3.7 mph 3.7 mph 73 % 0.0 in
15:01 22.6 °F 17.5 °F 1015.8 in WSW 5.6 mph 5.6 mph 73 % 0.0 in
15:06 22.8 °F 17.7 °F 1015.8 in West 5.6 mph 5.6 mph 73 % 0.0 in
15:11 23.0 °F 17.2 °F 1015.8 in SW 9.0 mph 9.0 mph 70 % 0.0 in
15:16 23.0 °F 16.8 °F 1015.8 in WSW 7.4 mph 7.4 mph 68 % 0.0 in
15:21 22.9 °F 16.4 °F 1015.8 in West 7.4 mph 7.4 mph 67 % 0.0 in
15:27 23.0 °F 16.6 °F 1015.8 in West 4.2 mph 4.2 mph 67 % 0.0 in
15:32 22.9 °F 16.4 °F 1015.8 in WSW 3.7 mph 3.7 mph 67 % 0.0 in
15:37 22.8 °F 16.1 °F 1014.8 in West 3.9 mph 3.9 mph 66 % 0.0 in
15:42 22.8 °F 15.9 °F 1014.8 in WSW 5.6 mph 5.6 mph 65 % 0.0 in
15:47 22.9 °F 15.9 °F 1014.8 in South 3.7 mph 3.7 mph 65 % 0.0 in
15:52 22.9 °F 15.9 °F 1014.8 in West 5.6 mph 5.6 mph 65 % 0.0 in
15:57 22.9 °F 15.7 °F 1014.8 in WNW 3.7 mph 3.7 mph 64 % 0.0 in
16:02 23.0 °F 15.6 °F 1014.8 in NNW 3.7 mph 3.7 mph 63 % 0.0 in
16:07 23.5 °F 15.8 °F 1013.8 in ENE 3.7 mph 3.7 mph 62 % 0.0 in
16:12 23.6 °F 15.6 °F 1013.8 in NW 6.4 mph 6.4 mph 61 % 0.0 in
16:17 23.5 °F 15.3 °F 1013.8 in ENE 5.6 mph 5.6 mph 60 % 0.0 in
16:22 23.6 °F 15.4 °F 1013.8 in NNE 5.0 mph 5.0 mph 60 % 0.0 in
16:27 24.1 °F 15.6 °F 1013.8 in NW 3.9 mph 3.9 mph 59 % 0.0 in
16:32 24.6 °F 16.1 °F 1013.8 in SW 5.6 mph 5.6 mph 59 % 0.0 in
16:37 25.1 °F 15.7 °F 1013.8 in WSW 5.6 mph 5.6 mph 56 % 0.0 in
16:42 25.3 °F 15.6 °F 1013.8 in WNW 7.4 mph 7.4 mph 55 % 0.0 in
16:47 25.3 °F 15.6 °F 1013.8 in North 3.9 mph   55 % 0.0 in
16:52 25.0 °F 15.3 °F 1013.8 in ESE 3.7 mph 3.7 mph 55 % 0.0 in
16:57 25.3 °F 15.3 °F 1013.8 in SW 3.9 mph 3.9 mph 54 % 0.0 in
17:02 25.0 °F 14.8 °F 1013.8 in South 3.7 mph 3.7 mph 53 % 0.0 in
17:07 25.3 °F 15.1 °F 1013.8 in WSW 10.0 mph   53 % 0.0 in
17:12 25.5 °F 15.2 °F 1013.8 in WSW 5.6 mph 5.6 mph 53 % 0.0 in
17:17 25.7 °F 15.4 °F 1013.8 in WSW 5.6 mph 5.6 mph 53 % 0.0 in
17:22 25.8 °F 15.5 °F 1012.8 in WSW 3.7 mph 3.9 mph 53 % 0.0 in
17:27 25.6 °F 15.3 °F 1012.8 in NW 3.7 mph 3.7 mph 53 % 0.0 in
17:32 25.6 °F 15.3 °F 1012.8 in West 5.6 mph 5.6 mph 53 % 0.0 in
17:37 25.6 °F 15.3 °F 1012.8 in SW 5.6 mph 5.6 mph 53 % 0.0 in
17:42 25.6 °F 15.0 °F 1012.8 in West 5.6 mph 5.6 mph 52 % 0.0 in
17:47 26.0 °F 15.4 °F 1012.8 in West 8.7 mph 8.7 mph 52 % 0.0 in
17:52 26.3 °F 15.7 °F 1012.8 in SW 5.6 mph 5.6 mph 52 % 0.0 in
17:57 26.5 °F 15.8 °F 1012.8 in Calm     52 % 0.0 in
18:02 26.9 °F 15.9 °F 1012.8 in SW 3.7 mph 3.7 mph 51 % 0.0 in
18:04 26.9 °F 15.9 °F 1012.8 in West 5.6 mph 5.6 mph 51 % 0.0 in
18:09 26.9 °F 15.6 °F 1012.8 in SW 3.7 mph 3.9 mph 50 % 0.0 in
18:14 26.9 °F 15.6 °F 1012.8 in SW 7.4 mph 7.4 mph 50 % 0.0 in
18:19 26.5 °F 15.2 °F 1011.7 in SW 5.6 mph 5.6 mph 50 % 0.0 in
18:24 26.5 °F 15.2 °F 1011.7 in West 5.6 mph 5.6 mph 50 % 0.0 in
18:29 26.6 °F 15.0 °F 1011.7 in SW 5.6 mph 5.6 mph 49 % 0.0 in
18:34 26.8 °F 15.2 °F 1011.7 in SW 3.7 mph 3.7 mph 49 % 0.0 in
18:39 26.8 °F 14.9 °F 1011.7 in WSW 9.3 mph 9.3 mph 48 % 0.0 in
18:44 26.9 °F 14.6 °F 1011.7 in West 5.6 mph 5.6 mph 47 % 0.0 in
18:49 27.1 °F 14.5 °F 1011.7 in West 5.6 mph 5.6 mph 46 % 0.0 in
18:54 27.2 °F 14.6 °F 1011.7 in SSW 9.3 mph 9.3 mph 46 % 0.0 in
18:59 26.9 °F 13.9 °F 1011.7 in SSE 9.3 mph 9.3 mph 45 % 0.0 in
19:04 26.9 °F 13.9 °F 1012.8 in SSW 7.4 mph 7.4 mph 45 % 0.0 in
19:09 26.9 °F 13.6 °F 1012.8 in WSW 7.4 mph 7.4 mph 44 % 0.0 in
19:10 20.0 °F 10.4 °F 1016.8 in NE 3.2 mph 3.2 mph 54 % 0.0 in
19:14 26.6 °F 13.0 °F 1012.8 in South 9.3 mph 9.3 mph 43 % 0.0 in
19:19 26.7 °F 13.4 °F 1012.8 in SW 6.4 mph 6.4 mph 44 % 0.0 in
19:20 19.9 °F 11.7 °F 1016.8 in NE 3.2 mph 6.4 mph 59 % 0.0 in
19:24 26.5 °F 12.9 °F 1012.8 in South 9.7 mph 9.7 mph 43 % 0.0 in
19:29 26.4 °F 12.8 °F 1012.8 in SW 5.6 mph 5.6 mph 43 % 0.0 in
19:30 19.7 °F 12.7 °F 1016.8 in ENE 3.2 mph 6.4 mph 64 % 0.0 in
19:39 26.2 °F 12.6 °F 1013.8 in SW 5.6 mph 5.6 mph 43 % 0.0 in
19:40 19.5 °F 13.2 °F 1016.8 in ENE 4.8 mph 4.8 mph 67 % 0.0 in
19:44 26.0 °F 12.8 °F 1013.8 in SSW 7.4 mph 7.4 mph 44 % 0.0 in
19:49 25.8 °F 12.6 °F 1013.8 in SW 5.6 mph 5.6 mph 44 % 0.0 in
19:50 19.3 °F 13.4 °F 1016.8 in ENE 4.8 mph 6.4 mph 69 % 0.0 in
19:54 25.6 °F 12.4 °F 1013.8 in SW 7.4 mph 7.4 mph 44 % 0.0 in
19:59 25.4 °F 12.3 °F 1013.8 in South 9.3 mph 9.3 mph 44 % 0.0 in
20:00 19.2 °F 13.8 °F 1016.8 in ENE 1.6 mph 9.7 mph 71 % 0.0 in
20:04 25.2 °F 12.4 °F 1013.8 in WSW 5.6 mph 5.6 mph 45 % 0.0 in
20:09 25.0 °F 12.2 °F 1013.8 in SW 5.8 mph 5.8 mph 45 % 0.0 in
20:10 19.0 °F 13.8 °F 1016.8 in NE 4.8 mph 6.4 mph 72 % 0.0 in
20:14 24.8 °F 12.4 °F 1013.8 in SW 7.4 mph 7.4 mph 46 % 0.0 in
20:19 24.7 °F 12.6 °F 1013.8 in SW 3.7 mph 3.7 mph 47 % 0.0 in
20:20 19.0 °F 13.8 °F 1016.8 in ENE 4.8 mph 9.7 mph 72 % 0.0 in
20:24 24.6 °F 12.6 °F 1013.8 in SW 5.6 mph 5.6 mph 47 % 0.0 in
20:29 24.5 °F 12.8 °F 1013.8 in SW 2.6 mph   48 % 0.0 in
20:30 18.9 °F 14.2 °F 1016.8 in NE 4.8 mph 6.4 mph 74 % 0.0 in
20:34 24.3 °F 12.6 °F 1013.8 in SSW 7.4 mph 7.4 mph 48 % 0.0 in
20:39 24.1 °F 12.7 °F 1013.8 in WSW 5.6 mph 6.1 mph 49 % 0.0 in
20:40 18.9 °F 14.4 °F 1016.8 in NE 4.8 mph 6.4 mph 75 % 0.0 in
20:44 24.1 °F 12.7 °F 1013.8 in WSW 5.6 mph 5.6 mph 49 % 0.0 in
20:49 24.0 °F 12.9 °F 1013.8 in SW 5.6 mph 5.6 mph 50 % 0.0 in
20:50 18.9 °F 14.2 °F 1016.8 in ENE 4.8 mph 4.8 mph 74 % 0.0 in
20:54 23.9 °F 12.8 °F 1013.8 in WSW 4.7 mph 4.7 mph 50 % 0.0 in
20:59 23.7 °F 12.9 °F 1013.8 in West 3.9 mph 3.9 mph 51 % 0.0 in
21:00 18.8 °F 14.3 °F 1016.8 in ENE 3.2 mph 4.8 mph 75 % 0.0 in
21:04 23.6 °F 12.9 °F 1013.8 in SSW 3.7 mph 3.7 mph 51 % 0.0 in
21:09 23.5 °F 12.8 °F 1013.8 in WSW 5.6 mph 5.6 mph 51 % 0.0 in
21:10 18.7 °F 14.2 °F 1016.8 in ENE 1.6 mph 4.8 mph 75 % 0.0 in
21:14 23.3 °F 12.9 °F 1013.8 in SSW 5.8 mph 5.8 mph 52 % 0.0 in
21:19 23.3 °F 12.9 °F 1013.8 in WSW 9.3 mph 9.3 mph 52 % 0.0 in
21:20 18.8 °F 14.3 °F 1016.8 in ENE 4.8 mph 4.8 mph 75 % 0.0 in
21:24 23.2 °F 13.1 °F 1013.8 in WSW 5.6 mph 5.6 mph 53 % 0.0 in
21:29 23.2 °F 13.1 °F 1013.8 in West 7.4 mph 7.4 mph 53 % 0.0 in
21:30 18.9 °F 14.4 °F 1016.8 in ENE 3.2 mph 4.8 mph 75 % 0.0 in
21:34 23.3 °F 13.2 °F 1014.8 in WNW 13.0 mph 13.0 mph 53 % 0.0 in
21:39 23.0 °F 12.6 °F 1014.8 in WNW 13.0 mph 13.0 mph 52 % 0.0 in
21:40 18.9 °F 14.6 °F 1016.8 in East 3.2 mph 6.4 mph 76 % 0.0 in
21:44 22.9 °F 12.8 °F 1014.8 in West 7.4 mph 7.4 mph 53 % 0.0 in
21:49 22.7 °F 12.3 °F 1014.8 in WSW 9.3 mph 9.3 mph 52 % 0.0 in
21:50 18.9 °F 14.6 °F 1016.8 in East 1.6 mph 3.2 mph 76 % 0.0 in
21:54 22.6 °F 12.2 °F 1014.8 in North 9.3 mph 9.3 mph 52 % 0.0 in
21:59 22.4 °F 12.1 °F 1014.8 in WSW 7.4 mph 7.4 mph 52 % 0.0 in
22:00 18.8 °F 14.5 °F 1016.8 in East 1.6 mph 3.2 mph 76 % 0.0 in
22:04 22.3 °F 11.9 °F 1014.8 in NE 3.7 mph 3.7 mph 52 % 0.0 in
22:09 22.2 °F 11.6 °F 1014.8 in ENE 5.6 mph 5.6 mph 51 % 0.0 in
22:10 18.7 °F 14.2 °F 1016.8 in ENE 1.6 mph 3.2 mph 75 % 0.0 in
22:14 22.1 °F 11.5 °F 1014.8 in NE 4.7 mph 4.7 mph 51 % 0.0 in
22:19 22.0 °F 11.1 °F 1015.8 in SW 3.7 mph 3.7 mph 50 % 0.0 in
22:20 18.6 °F 14.1 °F 1016.8 in Calm   1.6 mph 75 % 0.0 in
22:24 21.9 °F 11.3 °F 1015.8 in North 3.7 mph 3.7 mph 51 % 0.0 in
22:29 21.9 °F 11.3 °F 1015.8 in SW 3.7 mph 3.7 mph 51 % 0.0 in
22:30 18.5 °F 14.0 °F 1016.8 in Calm     75 % 0.0 in
22:34 21.6 °F 11.0 °F 1015.8 in WSW 5.6 mph 5.6 mph 51 % 0.0 in
22:39 21.4 °F 10.8 °F 1015.8 in Calm     51 % 0.0 in
22:40 18.3 °F 14.0 °F 1015.8 in NNE 1.6 mph 4.8 mph 76 % 0.0 in
22:44 21.3 °F 10.7 °F 1015.8 in NNE 3.7 mph 3.7 mph 51 % 0.0 in
22:49 21.2 °F 10.7 °F 1015.8 in NNW 1.9 mph   51 % 0.0 in
22:50 18.2 °F 13.9 °F 1016.8 in NE 1.6 mph 4.8 mph 76 % 0.0 in
22:54 21.1 °F 10.6 °F 1015.8 in West 3.9 mph 3.9 mph 51 % 0.0 in
22:59 21.0 °F 10.5 °F 1015.8 in WSW 2.6 mph   51 % 0.0 in
23:00 18.0 °F 13.5 °F 1016.8 in Calm   3.2 mph 75 % 0.0 in
23:04 20.9 °F 10.7 °F 1015.8 in SW 4.7 mph   52 % 0.0 in
23:09 20.5 °F 10.3 °F 1015.8 in SW 5.6 mph 5.6 mph 52 % 0.0 in
23:10 17.9 °F 13.2 °F 1016.8 in NE 1.6 mph 3.2 mph 74 % 0.0 in
23:15 20.4 °F 10.5 °F 1015.8 in WSW 3.7 mph 3.9 mph 53 % 0.0 in
23:20 20.3 °F 10.4 °F 1015.8 in WSW 5.6 mph 5.6 mph 53 % 0.0 in
23:25 20.3 °F 10.4 °F 1015.8 in WSW 3.7 mph 3.7 mph 53 % 0.0 in
23:30 20.2 °F 10.3 °F 1015.8 in WSW 1.9 mph   53 % 0.0 in
23:35 20.2 °F 10.3 °F 1015.8 in WNW 1.9 mph   53 % 0.0 in
23:40 20.1 °F 10.5 °F 1015.8 in WNW 1.9 mph   54 % 0.0 in
23:45 20.1 °F 10.5 °F 1015.8 in Calm     54 % 0.0 in
23:50 20.1 °F 10.5 °F 1015.8 in Calm     54 % 0.0 in
23:55 20.1 °F 10.5 °F 1015.8 in Calm     54 % 0.0 in
Meteo Sesrovires
Elogis d' Weather Underground - 1.5 mb

Guio original per  Jim McMurry - jmcmurry@mwt.net Adaptat per a la plantilla per  Wim van der Kuil - Leuven-Template.eu

Trobareu la nostra informacio del temps tambe a:

Weather Underground

AWEKAS